メインページ
METAR-TAF:

METAR-TAF

空港 :

アボッツフォード, ブリティッシュコロンビア州, カナダ

緯度: 49-02N, 経度: 122-22W, 海抜: 54m

現時点の気象観測

当レポートは38分前の15:00(UTC)に作成
変向風 2kt
気温 14°C
湿度 88%
気圧 1014 hPa
視程: 48.3km
高度8000ftの雲はほとんどない
高度22000ftの千切れ雲あり

METAR: CYXX 111500Z VRB02KT 30SM FEW080 BKN220 14/12 A2993 RMK AC2CC3 SLP138

時間: 08:38 (15:38 UTC)

予報

当レポートは4時間0分前の11:38(UTC)に作成
予報は11日の 12時(UTC)から 12日の 12時(UTC)まで有効
変向風 3kt
視程: 10km
高度18000ftの雲はほとんどない
11日の 1400時(UTC)から
変向風 3kt
視程: 10km
高度2000ftの雲は散在している
11日の 1800時(UTC)から
南/南西の風 10kt
視程: 10km
高度3000ftの雲はほとんどない
高度18000ftの雲は散在している
12日の 0600時(UTC)から
の風 6kt
視程: 10km
高度2000ftの雲は散在している
高度5000ftの千切れ雲あり

TAF: CYXX 111138Z 1112/1212 VRB03KT P6SM FEW180 FM111400 VRB03KT P6SM SCT020 FM111800 21010KT P6SM FEW030 SCT180 FM120600 19006KT P6SM SCT020 BKN050 RMK NXT FCST BY 111800Z

4,000以上の空港の気象観測と天気予報(METAR報とTAF報)

利用可能な観測所は地図上に黄色い丸と赤い丸で示す。

丸の上にカーソルを重ねると観測所名を参照できる。

次にクリックすると気象観測と天気予報を参照できる。

マップの切り替え:黒色「×」印の緑ボタンをクリックして拡大、「-」印の緑ボタンをクリックして縮小、緑色の三角印をクリックして隣りの地図に切り替え


METAR-TAF: